Time;durP1;ratioP1;P1;durP2;ratioP2;P2;SDS_P1;SDS_P2;PMS_P1;PMS_P2;Temp;Humidity;BMP_temperature;BMP_pressure;BME280_temperature;BME280_humidity;BME280_pressure;Samples;Min_cycle;Max_cycle;Signal;HPM_P1;HPM_P2
2021/04/12 00:01:11;;;;;;;1.25;0.50;;;4.50;89.90;;;;;;5029526;28;20512;-68
2021/04/12 00:03:53;;;;;;;4.97;0.75;;;4.40;88.60;;;;;;5028578;28;20026;-68
2021/04/12 00:06:41;;;;;;;2.35;0.43;;;4.50;88.80;;;;;;5029913;28;20367;-68
2021/04/12 00:09:13;;;;;;;5.35;0.80;;;4.40;89.20;;;;;;5029221;28;20060;-67
2021/04/12 00:11:50;;;;;;;3.40;0.80;;;4.30;89.80;;;;;;5028925;28;20045;-68
2021/04/12 00:14:23;;;;;;;3.53;0.65;;;4.30;90.00;;;;;;5030405;28;20053;-68
2021/04/12 00:17:00;;;;;;;6.13;0.90;;;4.30;89.90;;;;;;5011507;28;20150;-68
2021/04/12 00:19:29;;;;;;;5.53;1.23;;;4.30;90.20;;;;;;5026546;28;20036;-68
2021/04/12 00:22:27;;;;;;;2.08;0.73;;;4.30;90.40;;;;;;5011562;28;20695;-68
2021/04/12 00:25:18;;;;;;;2.38;0.77;;;4.30;90.50;;;;;;5004031;28;20045;-68
2021/04/12 00:27:47;;;;;;;1.88;0.60;;;4.20;90.50;;;;;;5030130;28;20056;-68
2021/04/12 00:30:16;;;;;;;5.90;0.90;;;4.30;90.20;;;;;;5027907;28;20029;-68
2021/04/12 00:32:57;;;;;;;5.63;0.90;;;4.20;90.30;;;;;;5030518;28;20049;-68
2021/04/12 00:35:39;;;;;;;4.22;0.80;;;4.20;90.70;;;;;;5029500;28;20032;-68
2021/04/12 00:38:11;;;;;;;4.55;1.02;;;4.20;90.50;;;;;;5029445;28;20042;-68
2021/04/12 00:40:57;;;;;;;1.92;0.75;;;4.20;90.70;;;;;;5029445;28;20026;-67
2021/04/12 00:43:36;;;;;;;5.75;0.93;;;4.20;90.70;;;;;;5027846;28;20510;-68
2021/04/12 00:46:23;;;;;;;3.33;0.90;;;4.20;90.50;;;;;;5029090;28;20108;-67
2021/04/12 00:49:07;;;;;;;4.20;1.10;;;4.20;90.50;;;;;;5028165;28;20084;-68
2021/04/12 00:51:47;;;;;;;7.05;1.55;;;4.20;90.90;;;;;;5030577;28;20021;-67
2021/04/12 00:55:04;;;;;;;3.38;0.77;;;4.10;90.90;;;;;;5030957;28;20041;-68
2021/04/12 00:57:43;;;;;;;4.10;1.10;;;4.10;90.90;;;;;;4986830;28;20041;-68
2021/04/12 01:00:32;;;;;;;11.10;2.63;;;4.10;90.90;;;;;;5023848;28;20523;-68
2021/04/12 01:03:08;;;;;;;6.40;1.15;;;4.00;90.90;;;;;;5000889;28;20125;-67
2021/04/12 01:06:18;;;;;;;5.35;1.38;;;4.00;90.80;;;;;;5028597;28;20032;-67
2021/04/12 01:09:09;;;;;;;4.00;0.75;;;4.00;91.00;;;;;;5007186;28;20450;-67
2021/04/12 01:12:12;;;;;;;4.05;0.90;;;4.00;91.00;;;;;;5028946;28;20096;-68
2021/04/12 01:15:06;;;;;;;2.63;0.90;;;4.00;90.90;;;;;;5034772;28;20441;-68
2021/04/12 01:17:56;;;;;;;8.43;1.00;;;4.00;90.80;;;;;;5027923;28;20091;-67
2021/04/12 01:20:51;;;;;;;3.67;1.00;;;4.00;91.00;;;;;;5028815;28;20033;-68
2021/04/12 01:23:48;;;;;;;2.72;0.70;;;4.00;91.00;;;;;;5033721;28;20153;-67
2021/04/12 01:26:44;;;;;;;3.70;0.90;;;3.90;90.90;;;;;;5033615;28;20037;-67
2021/04/12 01:30:03;;;;;;;5.97;1.25;;;3.90;91.40;;;;;;5032925;28;20083;-67
2021/04/12 01:32:53;;;;;;;3.47;0.80;;;3.90;91.30;;;;;;5033748;28;20049;-68
2021/04/12 01:35:43;;;;;;;6.30;0.95;;;3.90;91.50;;;;;;5032584;28;20064;-68
2021/04/12 01:38:31;;;;;;;6.22;1.17;;;3.90;91.60;;;;;;5028569;28;20593;-68
2021/04/12 01:41:38;;;;;;;7.88;1.27;;;3.90;91.50;;;;;;5032571;28;20033;-68
2021/04/12 01:44:27;;;;;;;6.13;1.00;;;3.90;91.50;;;;;;5002670;28;20414;-68
2021/04/12 01:47:11;;;;;;;6.25;1.00;;;3.90;91.60;;;;;;5032408;28;20022;-67
2021/04/12 01:50:02;;;;;;;4.05;1.00;;;3.80;91.50;;;;;;5035014;28;20557;-68
2021/04/12 01:53:05;;;;;;;4.80;1.02;;;3.80;91.70;;;;;;5031429;28;20091;-67
2021/04/12 01:56:15;;;;;;;4.88;1.77;;;3.80;91.70;;;;;;5030577;28;20033;-68
2021/04/12 01:59:10;;;;;;;3.58;1.00;;;3.80;91.80;;;;;;5030715;28;20044;-67
2021/04/12 02:02:07;;;;;;;6.88;2.35;;;3.80;91.70;;;;;;5032381;28;20359;-67
2021/04/12 02:05:06;;;;;;;3.47;1.60;;;3.80;91.70;;;;;;5031989;28;20125;-67
2021/04/12 02:07:53;;;;;;;3.70;1.20;;;3.80;91.60;;;;;;5031092;28;20026;-68
2021/04/12 02:10:38;;;;;;;5.68;1.40;;;3.80;91.30;;;;;;5030563;28;20018;-67
2021/04/12 02:13:18;;;;;;;4.15;1.33;;;3.70;91.60;;;;;;5036562;28;20072;-68
2021/04/12 02:15:59;;;;;;;4.35;1.05;;;3.70;91.80;;;;;;5033266;28;20040;-68
2021/04/12 02:18:36;;;;;;;7.18;1.23;;;3.70;91.60;;;;;;5028912;28;20514;-68
2021/04/12 02:21:33;;;;;;;1.45;0.73;;;3.70;91.50;;;;;;5031782;28;20041;-67
2021/04/12 02:24:09;;;;;;;5.10;1.00;;;3.70;91.50;;;;;;5031684;28;20040;-68
2021/04/12 02:26:50;;;;;;;5.00;1.23;;;3.70;91.50;;;;;;5031424;28;20467;-68
2021/04/12 02:29:31;;;;;;;5.40;1.13;;;3.70;91.00;;;;;;5047598;28;20152;-67
2021/04/12 02:32:23;;;;;;;8.07;1.02;;;3.60;91.30;;;;;;5037130;28;20030;-68
2021/04/12 02:35:08;;;;;;;4.18;1.27;;;3.60;91.50;;;;;;5031199;28;20029;-67
2021/04/12 02:37:48;;;;;;;10.48;1.40;;;3.60;91.60;;;;;;5029631;28;20040;-67
2021/04/12 02:40:20;;;;;;;5.10;1.10;;;3.60;91.30;;;;;;5030235;28;20036;-67
2021/04/12 02:42:51;;;;;;;4.82;1.25;;;3.60;91.50;;;;;;5032445;28;20030;-67
2021/04/12 02:45:25;;;;;;;;;;;3.60;91.50;;;;;;5033102;28;20033;-67
2021/04/12 02:48:20;;;;;;;5.38;1.20;;;3.60;91.80;;;;;;5033012;28;19917;-67
2021/04/12 02:51:13;;;;;;;2.72;1.17;;;3.50;91.90;;;;;;5031731;28;20029;-68
2021/04/12 02:54:21;;;;;;;5.70;0.93;;;3.50;91.90;;;;;;5031188;28;20029;-67
2021/04/12 02:57:06;;;;;;;4.25;1.02;;;3.50;91.90;;;;;;5029290;28;20028;-68
2021/04/12 03:00:01;;;;;;;8.45;1.00;;;3.50;92.00;;;;;;5031407;28;20475;-67
2021/04/12 03:02:57;;;;;;;6.88;2.28;;;3.50;91.90;;;;;;5029587;28;20033;-67
2021/04/12 03:05:26;;;;;;;4.82;0.93;;;3.50;91.90;;;;;;5031525;28;20057;-67
2021/04/12 03:08:26;;;;;;;3.63;1.00;;;3.50;91.80;;;;;;5029797;28;20109;-68
2021/04/12 03:11:05;;;;;;;3.65;1.20;;;3.50;91.70;;;;;;5029394;28;20040;-67
2021/04/12 03:13:53;;;;;;;6.07;1.10;;;3.50;91.60;;;;;;5031783;28;20147;-68
2021/04/12 03:16:38;;;;;;;6.22;1.85;;;3.50;91.50;;;;;;5031351;28;20033;-67
2021/04/12 03:19:37;;;;;;;6.15;0.90;;;3.40;91.70;;;;;;5030952;28;20029;-67
2021/04/12 03:22:27;;;;;;;4.90;1.10;;;3.40;91.80;;;;;;5030619;28;20104;-67
2021/04/12 03:25:17;;;;;;;3.53;1.20;;;3.40;91.70;;;;;;5029793;28;20043;-68
2021/04/12 03:28:02;;;;;;;8.98;1.58;;;3.40;91.60;;;;;;5029600;28;20033;-68
2021/04/12 03:30:52;;;;;;;6.95;1.45;;;3.30;91.90;;;;;;5030373;28;20629;-68
2021/04/12 03:33:36;;;;;;;4.13;1.08;;;3.30;91.80;;;;;;5027772;28;20029;-67
2021/04/12 03:36:07;;;;;;;6.55;1.10;;;3.30;91.70;;;;;;5030533;28;20030;-67
2021/04/12 03:38:56;;;;;;;5.90;1.25;;;3.30;92.10;;;;;;5030437;28;20033;-67
2021/04/12 03:41:42;;;;;;;4.80;1.10;;;3.40;91.80;;;;;;5028786;28;20048;-67
2021/04/12 03:44:34;;;;;;;5.57;1.35;;;3.30;91.80;;;;;;5031863;28;20045;-67
2021/04/12 03:47:34;;;;;;;3.10;1.10;;;3.30;91.90;;;;;;5028889;28;20025;-68
2021/04/12 03:50:13;;;;;;;4.53;1.15;;;3.30;91.60;;;;;;5028976;28;20018;-67
2021/04/12 03:52:51;;;;;;;7.70;1.55;;;3.30;91.80;;;;;;5030247;28;20109;-67
2021/04/12 03:55:19;;;;;;;6.20;1.65;;;3.30;91.90;;;;;;5030621;28;20029;-67
2021/04/12 03:57:57;;;;;;;3.33;1.48;;;3.20;91.90;;;;;;5029717;28;20033;-67
2021/04/12 04:00:41;;;;;;;6.75;1.30;;;3.20;92.00;;;;;;5028773;28;20100;-68
2021/04/12 04:03:33;;;;;;;7.25;1.73;;;3.20;92.00;;;;;;5031073;28;20044;-67
2021/04/12 04:06:15;;;;;;;4.22;1.95;;;3.20;92.10;;;;;;5027205;28;20453;-68
2021/04/12 04:09:17;;;;;;;6.32;1.50;;;3.20;92.10;;;;;;5029885;28;20022;-68
2021/04/12 04:12:00;;;;;;;5.82;1.60;;;3.20;91.80;;;;;;5029757;28;20411;-68
2021/04/12 04:14:50;;;;;;;6.75;2.20;;;3.20;91.90;;;;;;5029960;28;20048;-67
2021/04/12 04:17:20;;;;;;;8.80;2.42;;;3.20;91.70;;;;;;5011628;28;20032;-67
2021/04/12 04:20:21;;;;;;;4.88;1.80;;;3.20;91.90;;;;;;5012120;28;20482;-68
2021/04/12 04:23:05;;;;;;;10.27;2.58;;;3.10;92.10;;;;;;5027628;28;20036;-68
2021/04/12 04:25:55;;;;;;;9.70;2.10;;;3.10;92.20;;;;;;5028274;28;20280;-68
2021/04/12 04:29:00;;;;;;;5.83;2.23;;;3.10;92.20;;;;;;5029502;28;20482;-67
2021/04/12 04:31:50;;;;;;;8.85;2.97;;;3.10;92.30;;;;;;5029725;28;20391;-67
2021/04/12 04:34:32;;;;;;;6.90;3.08;;;3.10;92.30;;;;;;5028927;28;20036;-67
2021/04/12 04:37:32;;;;;;;5.93;2.25;;;3.00;92.50;;;;;;5028382;28;20042;-67
2021/04/12 04:40:37;;;;;;;10.85;2.97;;;3.10;92.50;;;;;;5031561;28;20566;-67
2021/04/12 04:43:17;;;;;;;5.93;2.40;;;3.10;92.50;;;;;;5028498;28;20056;-67
2021/04/12 04:45:52;;;;;;;7.05;3.10;;;3.10;91.90;;;;;;5030036;28;20109;-67
2021/04/12 04:48:42;;;;;;;8.07;2.88;;;3.10;92.30;;;;;;5029714;28;20053;-68
2021/04/12 04:51:26;;;;;;;7.75;2.40;;;3.00;92.30;;;;;;5025382;28;20026;-68
2021/04/12 04:53:54;;;;;;;8.35;2.85;;;3.10;92.00;;;;;;5028777;28;20071;-67
2021/04/12 04:56:46;;;;;;;7.63;2.47;;;3.10;92.20;;;;;;5026710;28;20448;-71
2021/04/12 04:59:39;;;;;;;11.25;2.85;;;3.10;92.20;;;;;;5028653;28;20062;-68
2021/04/12 05:02:25;;;;;;;11.25;2.92;;;3.10;92.30;;;;;;5027265;28;20079;-68
2021/04/12 05:05:32;;;;;;;5.50;2.72;;;3.10;92.10;;;;;;5027448;28;20105;-68
2021/04/12 05:08:20;;;;;;;6.35;2.80;;;3.10;92.00;;;;;;5015260;28;20480;-67
2021/04/12 05:11:25;;;;;;;6.97;2.38;;;3.10;92.30;;;;;;5028231;28;20116;-67
2021/04/12 05:13:53;;;;;;;8.15;2.38;;;3.10;92.20;;;;;;5027744;28;20029;-68
2021/04/12 05:16:35;;;;;;;7.05;2.45;;;3.10;92.30;;;;;;5030038;28;20036;-67
2021/04/12 05:19:19;;;;;;;;;;;3.20;92.30;;;;;;5030450;28;20043;-67
2021/04/12 05:22:07;;;;;;;7.78;2.45;;;3.20;92.20;;;;;;5026460;28;20418;-67
2021/04/12 05:25:02;;;;;;;8.82;2.97;;;3.20;92.40;;;;;;5029380;28;20041;-67
2021/04/12 05:27:39;;;;;;;10.20;3.15;;;3.20;92.40;;;;;;5030939;28;20526;-67
2021/04/12 05:30:25;;;;;;;9.30;2.78;;;3.30;92.40;;;;;;5028796;28;20102;-67
2021/04/12 05:33:15;;;;;;;9.27;3.10;;;3.30;92.30;;;;;;5030732;28;20033;-67
2021/04/12 05:35:51;;;;;;;13.07;2.90;;;3.30;92.40;;;;;;5031538;28;20033;-67
2021/04/12 05:38:32;;;;;;;7.10;2.83;;;3.40;92.10;;;;;;5031823;28;20029;-66
2021/04/12 05:41:21;;;;;;;10.18;3.22;;;3.40;92.30;;;;;;5030803;28;20422;-66
2021/04/12 05:44:12;;;;;;;7.10;2.50;;;3.40;92.40;;;;;;5032729;28;20032;-67
2021/04/12 05:47:01;;;;;;;17.73;2.80;;;3.40;92.40;;;;;;5029923;28;20076;-67
2021/04/12 05:49:45;;;;;;;10.60;2.50;;;3.50;92.30;;;;;;5032231;28;20072;-67
2021/04/12 05:52:35;;;;;;;8.30;2.20;;;3.50;92.20;;;;;;5028207;28;20049;-68
2021/04/12 05:55:21;;;;;;;7.28;2.28;;;3.50;92.60;;;;;;5034569;28;20037;-67
2021/04/12 05:58:15;;;;;;;10.48;2.40;;;3.70;91.80;;;;;;5018237;28;20045;-68
2021/04/12 06:01:16;;;;;;;9.80;2.20;;;3.70;91.50;;;;;;5022383;28;20041;-69
2021/04/12 06:04:00;;;;;;;9.88;2.30;;;3.70;91.60;;;;;;5031440;28;20055;-68
2021/04/12 06:06:52;;;;;;;11.07;2.05;;;3.70;91.50;;;;;;5016523;28;20017;-68
2021/04/12 06:09:33;;;;;;;9.85;2.50;;;3.70;91.80;;;;;;5029292;28;20034;-69
2021/04/12 06:12:15;;;;;;;8.67;2.50;;;3.70;91.90;;;;;;5036939;28;20092;-68
2021/04/12 06:14:56;;;;;;;10.80;2.35;;;3.70;91.60;;;;;;5034711;28;20279;-67
2021/04/12 06:17:46;;;;;;;30.05;4.18;;;3.70;91.50;;;;;;5032687;28;20426;-67
2021/04/12 06:20:38;;;;;;;10.38;2.42;;;3.70;91.60;;;;;;5033978;28;20086;-69
2021/04/12 06:23:27;;;;;;;9.35;2.00;;;3.70;91.50;;;;;;5031745;28;20068;-68
2021/04/12 06:26:30;;;;;;;11.60;1.95;;;3.80;91.30;;;;;;5032500;28;20079;-69
2021/04/12 06:29:05;;;;;;;5.32;2.42;;;3.80;91.60;;;;;;5032940;28;20037;-69
2021/04/12 06:31:54;;;;;;;5.25;2.10;;;3.80;91.60;;;;;;5030954;28;20523;-71
2021/04/12 06:34:50;;;;;;;10.30;2.38;;;3.80;91.80;;;;;;5032697;28;20079;-70
2021/04/12 06:37:37;;;;;;;6.60;2.30;;;3.80;91.80;;;;;;5049018;28;20018;-71
2021/04/12 06:40:37;;;;;;;6.50;2.10;;;4.00;91.70;;;;;;5030843;28;20037;-72
2021/04/12 06:43:30;;;;;;;6.82;2.53;;;4.00;91.50;;;;;;5032177;28;20446;-72
2021/04/12 06:46:17;;;;;;;10.38;2.20;;;4.10;91.30;;;;;;5031855;28;20038;-71
2021/04/12 06:48:43;;;;;;;10.95;2.22;;;4.20;90.70;;;;;;5030282;28;20033;-71
2021/04/12 06:51:46;;;;;;;6.85;2.38;;;4.20;90.80;;;;;;5033373;28;20029;-71
2021/04/12 06:54:33;;;;;;;8.10;2.38;;;4.20;90.70;;;;;;5030500;28;20446;-71
2021/04/12 06:57:20;;;;;;;9.90;3.33;;;4.30;90.30;;;;;;5031256;28;20037;-72
2021/04/12 06:59:51;;;;;;;8.13;2.00;;;4.40;90.50;;;;;;5030091;28;20451;-71
2021/04/12 07:02:29;;;;;;;7.75;2.50;;;4.40;90.30;;;;;;5029591;28;20030;-71
2021/04/12 07:05:16;;;;;;;7.05;2.13;;;4.40;90.70;;;;;;5030498;28;20044;-72
2021/04/12 07:08:01;;;;;;;4.55;1.80;;;4.40;90.30;;;;;;5030746;28;20391;-72
2021/04/12 07:10:38;;;;;;;8.38;1.83;;;4.40;89.80;;;;;;5032860;28;20028;-72
2021/04/12 07:13:16;;;;;;;8.48;2.13;;;4.50;90.00;;;;;;5031459;28;20026;-72
2021/04/12 07:15:54;;;;;;;4.57;2.45;;;4.50;90.20;;;;;;5030138;28;20039;-71
2021/04/12 07:18:57;;;;;;;7.70;1.90;;;4.50;90.00;;;;;;5029920;28;20072;-72
2021/04/12 07:21:50;;;;;;;7.88;2.33;;;4.60;89.40;;;;;;5031727;28;20049;-72
2021/04/12 07:25:00;;;;;;;8.57;1.90;;;4.50;89.80;;;;;;5029989;28;20052;-71
2021/04/12 07:28:19;;;;;;;8.82;2.00;;;4.50;89.70;;;;;;5016856;28;20041;-73
2021/04/12 07:31:28;;;;;;;7.07;1.95;;;4.60;90.00;;;;;;5027894;28;20033;-71
2021/04/12 07:33:58;;;;;;;6.05;1.73;;;4.70;88.90;;;;;;4992540;28;20487;-71
2021/04/12 07:37:05;;;;;;;8.52;2.47;;;4.70;88.90;;;;;;5030657;28;20033;-70
2021/04/12 07:40:08;;;;;;;5.15;1.70;;;4.90;87.30;;;;;;5031225;28;20045;-70
2021/04/12 07:42:54;;;;;;;10.73;2.03;;;4.90;88.30;;;;;;5030418;28;20029;-70
2021/04/12 07:46:01;;;;;;;6.47;1.90;;;4.90;88.60;;;;;;5002807;28;20509;-70
2021/04/12 07:48:51;;;;;;;8.23;1.83;;;5.10;86.90;;;;;;5031437;28;20086;-70
2021/04/12 07:51:32;;;;;;;9.48;2.13;;;5.30;86.40;;;;;;5030894;28;20033;-70
2021/04/12 07:54:17;;;;;;;;;;;5.40;85.30;;;;;;5031166;28;20044;-70
2021/04/12 07:57:13;;;;;;;7.43;1.63;;;5.40;85.90;;;;;;5029521;28;19909;-69
2021/04/12 08:00:00;;;;;;;8.38;1.73;;;5.40;86.00;;;;;;5030693;28;20040;-70
2021/04/12 08:02:43;;;;;;;8.35;1.80;;;5.40;86.60;;;;;;5030335;28;20045;-70
2021/04/12 08:05:46;;;;;;;8.10;1.98;;;5.50;86.30;;;;;;5030867;28;20136;-70
2021/04/12 08:08:27;;;;;;;8.40;1.77;;;5.50;86.90;;;;;;5025800;28;20018;-70
2021/04/12 08:11:32;;;;;;;4.70;1.65;;;5.70;84.30;;;;;;5044418;28;20112;-70
2021/04/12 08:14:51;;;;;;;7.03;1.50;;;5.70;83.70;;;;;;5029372;28;20025;-70
2021/04/12 08:17:54;;;;;;;5.50;1.38;;;5.80;82.90;;;;;;5029801;28;20041;-69
2021/04/12 08:20:29;;;;;;;10.38;1.58;;;5.70;84.00;;;;;;5044115;28;20092;-70
2021/04/12 08:23:32;;;;;;;11.77;1.65;;;5.70;84.40;;;;;;5029421;28;20039;-69
2021/04/12 08:26:14;;;;;;;11.73;2.10;;;5.80;84.10;;;;;;5029477;28;20086;-70
2021/04/12 08:29:09;;;;;;;7.28;1.60;;;5.80;84.70;;;;;;5029976;28;20034;-71
2021/04/12 08:31:53;;;;;;;9.55;1.50;;;5.80;82.10;;;;;;5013575;28;20041;-69
2021/04/12 08:34:50;;;;;;;4.25;1.08;;;5.90;81.30;;;;;;5028305;28;20065;-70
2021/04/12 08:37:53;;;;;;;5.53;1.35;;;5.80;80.20;;;;;;5029564;28;20418;-70
2021/04/12 08:40:25;;;;;;;5.95;1.00;;;5.80;80.00;;;;;;5031041;28;20029;-70
2021/04/12 08:43:36;;;;;;;6.18;0.88;;;5.80;79.00;;;;;;5030728;28;20033;-70
2021/04/12 08:46:14;;;;;;;;;;;5.90;79.00;;;;;;5028150;28;20056;-71
2021/04/12 08:48:52;;;;;;;2.05;0.98;;;6.00;75.60;;;;;;5029536;28;19909;-70
2021/04/12 08:51:59;;;;;;;3.47;1.00;;;6.10;75.90;;;;;;5028523;28;20086;-70
2021/04/12 08:54:50;;;;;;;11.20;2.92;;;6.10;77.10;;;;;;5029521;28;20026;-70
2021/04/12 08:57:47;;;;;;;6.82;1.10;;;6.20;77.40;;;;;;5028384;28;20036;-70
2021/04/12 09:00:34;;;;;;;3.15;1.20;;;6.30;77.20;;;;;;5028547;28;20033;-71
2021/04/12 09:03:38;;;;;;;6.18;1.27;;;6.40;77.20;;;;;;5026464;28;20044;-70
2021/04/12 09:06:07;;;;;;;3.88;1.33;;;6.50;74.80;;;;;;4969022;28;20065;-70
2021/04/12 09:09:03;;;;;;;6.70;1.20;;;6.60;74.80;;;;;;4974506;28;20035;-70
2021/04/12 09:11:53;;;;;;;7.20;1.10;;;6.50;75.00;;;;;;4950013;28;20039;-71
2021/04/12 09:14:43;;;;;;;7.50;1.02;;;6.60;72.30;;;;;;4967980;28;20491;-70
2021/04/12 09:17:42;;;;;;;6.32;1.10;;;6.40;72.80;;;;;;4966679;28;20088;-70
2021/04/12 09:20:27;;;;;;;5.88;1.10;;;6.50;71.80;;;;;;4968524;28;20030;-70
2021/04/12 09:23:20;;;;;;;3.70;1.00;;;6.50;70.10;;;;;;4966307;28;20031;-70
2021/04/12 09:26:04;;;;;;;5.32;0.93;;;6.60;70.90;;;;;;4966179;28;20035;-70
2021/04/12 09:28:36;;;;;;;6.85;0.98;;;6.70;73.20;;;;;;4966155;28;20464;-70
2021/04/12 09:31:32;;;;;;;4.53;0.90;;;6.80;72.30;;;;;;4966910;28;20049;-70
2021/04/12 09:34:15;;;;;;;5.97;1.25;;;6.80;72.40;;;;;;4966363;28;20137;-70
2021/04/12 09:37:09;;;;;;;6.22;1.25;;;6.80;71.70;;;;;;4989987;28;20065;-70
2021/04/12 09:40:00;;;;;;;3.88;1.02;;;6.80;72.40;;;;;;5026076;28;20118;-71
2021/04/12 09:42:57;;;;;;;5.53;1.25;;;6.70;72.80;;;;;;5029943;28;20022;-70
2021/04/12 09:46:03;;;;;;;4.95;1.10;;;6.80;70.50;;;;;;5031136;28;20033;-70
2021/04/12 09:48:39;;;;;;;4.80;1.08;;;7.00;70.60;;;;;;5032011;28;20216;-70
2021/04/12 09:51:31;;;;;;;5.47;0.90;;;7.00;70.80;;;;;;5033018;28;20356;-70
2021/04/12 09:54:11;;;;;;;3.72;0.85;;;7.10;68.10;;;;;;5029446;28;20033;-70
2021/04/12 09:57:14;;;;;;;7.88;1.25;;;7.00;70.70;;;;;;5029342;28;20068;-70
2021/04/12 09:59:54;;;;;;;9.85;1.25;;;6.90;70.90;;;;;;5033498;28;20030;-71
2021/04/12 10:02:57;;;;;;;5.55;0.95;;;6.90;70.90;;;;;;5031467;28;20021;-70
2021/04/12 10:06:14;;;;;;;3.85;0.98;;;6.80;71.60;;;;;;5032128;28;20025;-71
2021/04/12 10:09:17;;;;;;;5.57;0.90;;;6.90;70.70;;;;;;5032598;28;20549;-70
2021/04/12 10:11:52;;;;;;;8.50;1.10;;;7.10;69.80;;;;;;5032434;28;20029;-70
2021/04/12 10:14:24;;;;;;;4.03;0.98;;;7.10;67.90;;;;;;5030638;28;20083;-70
2021/04/12 10:17:05;;;;;;;6.95;1.30;;;7.10;69.20;;;;;;5031277;28;20029;-69
2021/04/12 10:19:45;;;;;;;5.90;0.98;;;7.20;69.30;;;;;;5031066;28;20563;-70
2021/04/12 10:22:14;;;;;;;6.70;1.00;;;7.30;67.10;;;;;;5031045;28;20033;-69
2021/04/12 10:24:55;;;;;;;3.65;1.05;;;7.30;68.20;;;;;;5031885;28;20037;-70
2021/04/12 10:27:50;;;;;;;3.47;0.95;;;7.30;69.40;;;;;;5028753;28;20018;-70
2021/04/12 10:30:19;;;;;;;2.65;0.80;;;7.30;67.90;;;;;;5031367;28;20105;-69
2021/04/12 10:32:48;;;;;;;3.40;0.80;;;7.30;67.50;;;;;;5032493;28;20025;-69
2021/04/12 10:35:21;;;;;;;2.92;0.82;;;7.50;67.80;;;;;;5032167;28;20029;-70
2021/04/12 10:37:59;;;;;;;4.40;0.93;;;7.60;67.30;;;;;;5028669;28;20025;-69
2021/04/12 10:40:28;;;;;;;3.45;0.90;;;7.80;64.40;;;;;;5030575;28;20075;-70
2021/04/12 10:43:17;;;;;;;7.30;0.93;;;8.00;62.30;;;;;;5013474;28;20060;-69
2021/04/12 10:46:01;;;;;;;2.92;0.95;;;7.90;63.20;;;;;;5033266;28;20057;-70
2021/04/12 10:48:46;;;;;;;5.43;0.95;;;7.90;63.90;;;;;;5030226;28;20147;-69
2021/04/12 10:51:30;;;;;;;3.15;1.00;;;7.80;64.70;;;;;;5032568;28;20101;-70
2021/04/12 10:54:33;;;;;;;4.32;0.90;;;7.90;64.00;;;;;;5025784;28;20029;-69
2021/04/12 10:57:18;;;;;;;3.47;0.90;;;7.90;65.00;;;;;;5013686;28;20029;-70
2021/04/12 11:00:08;;;;;;;5.22;0.90;;;8.10;62.60;;;;;;5032110;28;20028;-69
2021/04/12 11:02:44;;;;;;;2.97;0.87;;;8.00;68.30;;;;;;5027529;28;20422;-69
2021/04/12 11:05:17;;;;;;;4.78;1.60;;;7.80;70.50;;;;;;5029747;28;20037;-69
2021/04/12 11:08:09;;;;;;;2.85;0.85;;;7.50;71.90;;;;;;5030114;28;20029;-70
2021/04/12 11:10:45;;;;;;;3.13;0.88;;;7.40;73.60;;;;;;5030736;28;20033;-69
2021/04/12 11:13:15;;;;;;;4.97;0.90;;;7.20;77.70;;;;;;5031393;28;20053;-69
2021/04/12 11:16:11;;;;;;;1.90;0.70;;;6.70;79.10;;;;;;5030303;28;20505;-70
2021/04/12 11:19:01;;;;;;;2.63;0.70;;;6.20;83.50;;;;;;5029508;28;20091;-69
2021/04/12 11:21:39;;;;;;;1.70;0.90;;;6.00;84.70;;;;;;5026885;28;20025;-70
2021/04/12 11:24:29;;;;;;;2.05;0.77;;;5.80;87.50;;;;;;5031134;28;20037;-69
2021/04/12 11:27:14;;;;;;;1.95;0.82;;;5.80;89.50;;;;;;5033696;28;20040;-69
2021/04/12 11:29:43;;;;;;;2.03;0.80;;;5.70;90.10;;;;;;5013006;28;20035;-70
2021/04/12 11:32:25;;;;;;;2.28;0.90;;;5.70;90.20;;;;;;5029847;28;20021;-70
2021/04/12 11:35:07;;;;;;;4.68;1.33;;;5.70;90.70;;;;;;5031559;28;20406;-70
2021/04/12 11:37:56;;;;;;;5.20;1.40;;;5.80;90.90;;;;;;5029356;28;20095;-70
2021/04/12 11:40:43;;;;;;;2.65;1.02;;;5.80;91.10;;;;;;5028956;28;20779;-69
2021/04/12 11:43:16;;;;;;;5.18;1.42;;;5.90;91.30;;;;;;4997110;28;20077;-69
2021/04/12 11:45:49;;;;;;;3.00;1.45;;;6.00;91.00;;;;;;5024652;28;20049;-70
2021/04/12 11:48:24;;;;;;;3.65;1.33;;;6.00;90.20;;;;;;5030629;28;20029;-69
2021/04/12 11:51:12;;;;;;;2.03;1.02;;;6.20;90.50;;;;;;5028218;28;20438;-69
2021/04/12 11:53:55;;;;;;;3.42;1.27;;;6.60;90.90;;;;;;5031233;28;20025;-70
2021/04/12 11:56:46;;;;;;;4.45;1.17;;;7.10;91.00;;;;;;5030626;28;20033;-69
2021/04/12 11:59:31;;;;;;;4.10;1.65;;;7.50;90.50;;;;;;5028162;28;20074;-70
2021/04/12 12:02:23;;;;;;;3.00;1.00;;;7.70;91.50;;;;;;5030038;28;20033;-69
2021/04/12 12:04:52;;;;;;;569.25;357.30;;;7.70;89.30;;;;;;5032529;28;20055;-69
2021/04/12 12:07:18;;;;;;;266.05;124.90;;;7.50;89.20;;;;;;5030861;28;20034;-70
2021/04/12 12:10:03;;;;;;;54.03;35.97;;;7.40;89.70;;;;;;5028897;28;20538;-69
2021/04/12 12:12:44;;;;;;;17.17;8.27;;;7.30;89.60;;;;;;5026327;28;20029;-69
2021/04/12 12:15:18;;;;;;;6.07;1.20;;;7.10;90.10;;;;;;5029922;28;20061;-69
2021/04/12 12:17:54;;;;;;;4.28;1.33;;;7.10;86.80;;;;;;5030412;28;20541;-69
2021/04/12 12:20:31;;;;;;;6.10;1.23;;;7.20;88.30;;;;;;5032140;28;20030;-69
2021/04/12 12:23:19;;;;;;;3.28;1.50;;;7.30;85.30;;;;;;5030065;28;20029;-69
2021/04/12 12:25:49;;;;;;;2.42;1.02;;;7.40;90.80;;;;;;4989107;28;20047;-69
2021/04/12 12:28:36;;;;;;;3.60;1.70;;;7.50;91.30;;;;;;5023902;28;20029;-70
2021/04/12 12:31:35;;;;;;;5.43;1.35;;;7.70;93.20;;;;;;5028315;28;20033;-70
2021/04/12 12:34:12;;;;;;;3.05;1.20;;;8.10;93.00;;;;;;5024733;28;20041;-70
2021/04/12 12:36:54;;;;;;;4.03;1.20;;;8.50;91.80;;;;;;5042598;28;20056;-69
2021/04/12 12:39:31;;;;;;;3.03;1.20;;;8.80;92.00;;;;;;5023713;28;20021;-68
2021/04/12 12:42:02;;;;;;;1.85;1.10;;;9.10;91.90;;;;;;5028865;28;20076;-69
2021/04/12 12:44:30;;;;;;;3.58;1.13;;;9.50;91.50;;;;;;5028947;28;20399;-70
2021/04/12 12:47:03;;;;;;;3.25;1.55;;;9.90;91.10;;;;;;5028723;28;20030;-69
2021/04/12 12:49:32;;;;;;;4.15;1.10;;;10.20;91.10;;;;;;5028800;28;20021;-70
2021/04/12 12:52:02;;;;;;;2.65;1.00;;;10.10;85.00;;;;;;5028153;28;20033;-69
2021/04/12 12:54:55;;;;;;;2.78;0.90;;;9.80;82.10;;;;;;5027373;28;20047;-69
2021/04/12 12:57:33;;;;;;;3.50;0.90;;;9.50;84.70;;;;;;5026095;28;20046;-69
2021/04/12 13:00:33;;;;;;;5.07;1.20;;;9.40;74.10;;;;;;5028782;28;20120;-71
2021/04/12 13:02:59;;;;;;;3.42;1.15;;;9.40;75.50;;;;;;5024782;28;20129;-72
2021/04/12 13:05:35;;;;;;;6.90;1.80;;;9.20;77.30;;;;;;5028952;28;20021;-71
2021/04/12 13:08:19;;;;;;;2.97;0.95;;;9.30;74.00;;;;;;5027912;28;20039;-69
2021/04/12 13:10:50;;;;;;;1.23;0.80;;;9.10;71.90;;;;;;5032301;28;20022;-73
2021/04/12 13:13:34;;;;;;;5.22;1.45;;;8.90;75.90;;;;;;5014089;28;20048;-69
2021/04/12 13:16:19;;;;;;;3.15;0.80;;;8.70;77.20;;;;;;5028849;28;20052;-69
2021/04/12 13:18:59;;;;;;;1.88;1.00;;;8.60;78.60;;;;;;5032558;28;20025;-69
2021/04/12 13:21:28;;;;;;;3.72;1.23;;;8.70;76.60;;;;;;5030919;28;20425;-69
2021/04/12 13:24:18;;;;;;;2.70;0.98;;;8.80;77.50;;;;;;5031350;28;20033;-69
2021/04/12 13:27:17;;;;;;;3.03;0.90;;;9.10;72.70;;;;;;5030805;28;20053;-69
2021/04/12 13:30:01;;;;;;;2.20;1.00;;;9.10;68.80;;;;;;5032864;28;20503;-69
2021/04/12 13:32:37;;;;;;;5.10;1.00;;;9.10;74.00;;;;;;5032855;28;20025;-69
2021/04/12 13:35:09;;;;;;;2.28;0.77;;;9.10;66.80;;;;;;5030978;28;20126;-69
2021/04/12 13:37:41;;;;;;;3.95;0.70;;;9.00;66.60;;;;;;5027417;28;20030;-69
2021/04/12 13:40:21;;;;;;;3.13;0.82;;;9.00;63.80;;;;;;5032879;28;20042;-69
2021/04/12 13:43:01;;;;;;;2.42;0.70;;;8.90;67.00;;;;;;5032252;28;20027;-69
2021/04/12 13:45:39;;;;;;;2.03;0.93;;;8.80;65.70;;;;;;5035198;28;20026;-69
2021/04/12 13:48:27;;;;;;;1.10;0.82;;;8.80;70.30;;;;;;5031149;28;20048;-69
2021/04/12 13:50:56;;;;;;;2.70;0.63;;;9.20;64.90;;;;;;5012773;28;20026;-69
2021/04/12 13:53:44;;;;;;;2.08;0.80;;;9.60;63.40;;;;;;5031846;28;20029;-71
2021/04/12 13:56:14;;;;;;;4.18;0.68;;;9.90;64.30;;;;;;5032904;28;20029;-70
2021/04/12 13:58:48;;;;;;;3.25;0.60;;;10.30;64.30;;;;;;5030120;28;20758;-70
2021/04/12 14:01:19;;;;;;;1.77;0.50;;;10.60;60.50;;;;;;5031117;28;20022;-70
2021/04/12 14:04:04;;;;;;;4.38;0.85;;;10.60;54.10;;;;;;5030598;28;20045;-70
2021/04/12 14:06:45;;;;;;;2.58;0.57;;;10.30;52.30;;;;;;5032625;28;20554;-69
2021/04/12 14:09:26;;;;;;;2.17;0.65;;;10.00;54.00;;;;;;5011834;28;20387;-71
2021/04/12 14:12:07;;;;;;;4.45;0.70;;;9.80;56.00;;;;;;5031602;28;20495;-72
2021/04/12 14:14:45;;;;;;;3.65;0.98;;;10.00;52.70;;;;;;5030479;28;20125;-72
2021/04/12 14:17:22;;;;;;;1.15;0.55;;;10.20;59.10;;;;;;5031649;28;20513;-72
2021/04/12 14:19:51;;;;;;;1.77;0.90;;;10.60;57.30;;;;;;5031576;28;20044;-70
2021/04/12 14:22:30;;;;;;;3.38;0.70;;;10.90;54.20;;;;;;5030190;28;20072;-70
2021/04/12 14:25:11;;;;;;;4.22;1.38;;;10.80;57.00;;;;;;5029800;28;20055;-69
2021/04/12 14:27:39;;;;;;;5.82;1.00;;;10.80;57.80;;;;;;5027583;28;20025;-69
2021/04/12 14:30:21;;;;;;;2.92;0.95;;;10.60;58.80;;;;;;5030166;28;20345;-71
2021/04/12 14:32:57;;;;;;;;;;;10.30;58.20;;;;;;5029893;28;21212;-70
2021/04/12 14:35:29;;;;;;;3.88;0.90;;;10.10;57.50;;;;;;5035464;28;20021;-70